Senjero — 861799 — position and weather

sailwx.info

Track history (hours):
 
Tides and Currents Weather Stations Pressure Air Temp Water Temp Dewpoint Dewpoint Depression Visibility Wind Speed Wind Dir Waves Ship Positions

Senjero

Last reported at 2017-Dec-29 02:04 UTC. Time now 2018-Feb-20 08:13 UTC.
Position S 33°43' E 151°21'.
Warning: this ship's position is 53 days out of date.

; draft 2 m.

Type: Pleasure craft. MMSI: 503050570.

Date/timePositionNaut miles runAvg speedWind from/ knotsBaromVisibWave heightAir tempDewpointWater temp
2017-Dec-29 02:04S 33°43' E 151°21'7 9.1
2017-Dec-29 01:16S 33°36' E 151°21'2 6.6
2017-Dec-29 01:01S 33°35' E 151°19'4 8.2
2017-Dec-29 00:30S 33°39' E 151°18'0 0.8
2017-Dec-28 23:58S 33°39' E 151°18'0 0.0
2017-Dec-28 23:25S 33°39' E 151°18'0 0.0
2017-Dec-28 22:58S 33°39' E 151°18'0 0.0
2017-Dec-28 22:25S 33°39' E 151°18'0 0.0
2017-Dec-28 21:58S 33°39' E 151°18'0 0.0
2017-Dec-28 21:25S 33°39' E 151°18'0 0.0
2017-Dec-28 20:58S 33°39' E 151°18'0 0.0
2017-Dec-28 20:25S 33°39' E 151°18'0 0.0
2017-Dec-28 19:58S 33°39' E 151°18'0 0.0
2017-Dec-28 19:28S 33°39' E 151°18'0 0.0
2017-Dec-28 18:58S 33°39' E 151°18'0 0.0
2017-Dec-28 18:25S 33°39' E 151°18'0 0.0
2017-Dec-28 17:55S 33°39' E 151°18'0 0.0
2017-Dec-28 17:25S 33°39' E 151°18'0 0.0
2017-Dec-28 16:58S 33°39' E 151°18'0 0.0
2017-Dec-28 16:25S 33°39' E 151°18'0 0.0
2017-Dec-28 15:55S 33°39' E 151°18'0 0.0
2017-Dec-28 15:25S 33°39' E 151°18'0 0.0
2017-Dec-28 14:55S 33°39' E 151°18'0 0.0
2017-Dec-28 14:28S 33°39' E 151°18'0 0.0
2017-Dec-28 13:58S 33°39' E 151°18'0 0.0
2017-Dec-28 13:28S 33°39' E 151°18'0 0.0
2017-Dec-28 12:58S 33°39' E 151°18'0 0.0
2017-Dec-28 12:28S 33°39' E 151°18'0 0.0
2017-Dec-28 11:55S 33°39' E 151°18'0 0.0
2017-Dec-28 11:28S 33°39' E 151°18'0 0.0
2017-Dec-28 10:55S 33°39' E 151°18'0 0.0
2017-Dec-28 10:28S 33°39' E 151°18'0 0.0
2017-Dec-28 09:55S 33°39' E 151°18'0 0.0
2017-Dec-28 09:25S 33°39' E 151°18'0 0.0
2017-Dec-28 08:58S 33°39' E 151°18'0 0.0
2017-Dec-28 08:25S 33°39' E 151°18'0 0.0
2017-Dec-28 07:58S 33°39' E 151°18'0 0.0
2017-Dec-28 07:28S 33°39' E 151°18'0 0.3
2017-Dec-28 07:00S 33°39' E 151°18'2 0.4
2017-Dec-28 00:31S 33°37' E 151°18'0 7.9
2017-Dec-28 00:30S 33°37' E 151°18'2 4.1
2017-Dec-27 23:58S 33°39' E 151°18'0 0.0
2017-Dec-27 23:26S 33°39' E 151°18'0 0.0
2017-Dec-27 22:58S 33°39' E 151°18'0 0.0
2017-Dec-27 22:25S 33°39' E 151°18'0 0.0
2017-Dec-27 21:55S 33°39' E 151°18'0 0.0
2017-Dec-27 21:25S 33°39' E 151°18'0 0.0
2017-Dec-27 20:58S 33°39' E 151°18'0 0.0
2017-Dec-27 20:22S 33°39' E 151°18'0 0.0
2017-Dec-27 19:55S 33°39' E 151°18'0 0.0
2017-Dec-27 19:25S 33°39' E 151°18'0 0.0
2017-Dec-27 18:58S 33°39' E 151°18'0 0.0
2017-Dec-27 18:28S 33°39' E 151°18'0 0.0
2017-Dec-27 17:55S 33°39' E 151°18'0 0.0
2017-Dec-27 17:28S 33°39' E 151°18'0 0.0
2017-Dec-27 16:55S 33°39' E 151°18'0 0.0
2017-Dec-27 16:25S 33°39' E 151°18'0 0.0
2017-Dec-27 15:58S 33°39' E 151°18'0 0.0
2017-Dec-27 15:25S 33°39' E 151°18'0 0.0
2017-Dec-27 14:55S 33°39' E 151°18'0 0.0
2017-Dec-27 14:28S 33°39' E 151°18'0 0.0
2017-Dec-27 13:58S 33°39' E 151°18'0 0.0
2017-Dec-27 13:25S 33°39' E 151°18'0 0.0
2017-Dec-27 12:58S 33°39' E 151°18'0 0.0
2017-Dec-27 12:28S 33°39' E 151°18'0 0.0
2017-Dec-27 11:55S 33°39' E 151°18'0 0.0
2017-Dec-27 11:25S 33°39' E 151°18'0 0.0
2017-Dec-27 10:58S 33°39' E 151°18'0 0.0
2017-Dec-27 10:28S 33°39' E 151°18'0 0.0
2017-Dec-27 09:58S 33°39' E 151°18'0 0.0
2017-Dec-27 09:28S 33°39' E 151°18'0 0.0
2017-Dec-27 08:55S 33°39' E 151°18'0 0.0
2017-Dec-27 08:25S 33°39' E 151°18'0 0.0
2017-Dec-27 07:58S 33°39' E 151°18'0 0.0
2017-Dec-27 07:28S 33°39' E 151°18'0 0.0
2017-Dec-27 06:55S 33°39' E 151°18'0 0.0
2017-Dec-27 06:28S 33°39' E 151°18'0 0.0
2017-Dec-27 05:55S 33°39' E 151°18'1 2.2
2017-Dec-27 05:30S 33°38' E 151°18'2 0.4
2017-Dec-27 00:14S 33°37' E 151°19'0 0.2
2017-Dec-26 23:58S 33°37' E 151°19'1 2.5
2017-Dec-26 23:29S 33°35' E 151°19'2 0.1
2017-Dec-26 06:14S 33°34' E 151°17'2 7.5
2017-Dec-26 06:00S 33°34' E 151°19'8 7.3
2017-Dec-26 04:55S 33°42' E 151°21'3 7.8
2017-Dec-26 04:29S 33°45' E 151°20'  
Track history (hours):
 
Tides and Currents Weather Stations Pressure Air Temp Water Temp Dewpoint Dewpoint Depression Visibility Wind Speed Wind Dir Waves Ship Positions

Senjero

Last reported at 2017-Dec-29 02:04 UTC. Time now 2018-Feb-20 08:13 UTC.
Position S 33°43' E 151°21'.
Warning: this ship's position is 53 days out of date.

; draft 2 m.

Type: Pleasure craft. MMSI: 503050570.

Date/timePositionNaut miles runAvg speedWind from/ knotsBaromVisibWave heightAir tempDewpointWater temp
2017-Dec-29 02:04S 33°43' E 151°21'7 9.1
2017-Dec-29 01:16S 33°36' E 151°21'2 6.6
2017-Dec-29 01:01S 33°35' E 151°19'4 8.2
2017-Dec-29 00:30S 33°39' E 151°18'0 0.8
2017-Dec-28 23:58S 33°39' E 151°18'0 0.0
2017-Dec-28 23:25S 33°39' E 151°18'0 0.0
2017-Dec-28 22:58S 33°39' E 151°18'0 0.0
2017-Dec-28 22:25S 33°39' E 151°18'0 0.0
2017-Dec-28 21:58S 33°39' E 151°18'0 0.0
2017-Dec-28 21:25S 33°39' E 151°18'0 0.0
2017-Dec-28 20:58S 33°39' E 151°18'0 0.0
2017-Dec-28 20:25S 33°39' E 151°18'0 0.0
2017-Dec-28 19:58S 33°39' E 151°18'0 0.0
2017-Dec-28 19:28S 33°39' E 151°18'0 0.0
2017-Dec-28 18:58S 33°39' E 151°18'0 0.0
2017-Dec-28 18:25S 33°39' E 151°18'0 0.0
2017-Dec-28 17:55S 33°39' E 151°18'0 0.0
2017-Dec-28 17:25S 33°39' E 151°18'0 0.0
2017-Dec-28 16:58S 33°39' E 151°18'0 0.0
2017-Dec-28 16:25S 33°39' E 151°18'0 0.0
2017-Dec-28 15:55S 33°39' E 151°18'0 0.0
2017-Dec-28 15:25S 33°39' E 151°18'0 0.0
2017-Dec-28 14:55S 33°39' E 151°18'0 0.0
2017-Dec-28 14:28S 33°39' E 151°18'0 0.0
2017-Dec-28 13:58S 33°39' E 151°18'0 0.0
2017-Dec-28 13:28S 33°39' E 151°18'0 0.0
2017-Dec-28 12:58S 33°39' E 151°18'0 0.0
2017-Dec-28 12:28S 33°39' E 151°18'0 0.0
2017-Dec-28 11:55S 33°39' E 151°18'0 0.0
2017-Dec-28 11:28S 33°39' E 151°18'0 0.0
2017-Dec-28 10:55S 33°39' E 151°18'0 0.0
2017-Dec-28 10:28S 33°39' E 151°18'0 0.0
2017-Dec-28 09:55S 33°39' E 151°18'0 0.0
2017-Dec-28 09:25S 33°39' E 151°18'0 0.0
2017-Dec-28 08:58S 33°39' E 151°18'0 0.0
2017-Dec-28 08:25S 33°39' E 151°18'0 0.0
2017-Dec-28 07:58S 33°39' E 151°18'0 0.0
2017-Dec-28 07:28S 33°39' E 151°18'0 0.3
2017-Dec-28 07:00S 33°39' E 151°18'2 0.4
2017-Dec-28 00:31S 33°37' E 151°18'0 7.9
2017-Dec-28 00:30S 33°37' E 151°18'2 4.1
2017-Dec-27 23:58S 33°39' E 151°18'0 0.0
2017-Dec-27 23:26S 33°39' E 151°18'0 0.0
2017-Dec-27 22:58S 33°39' E 151°18'0 0.0
2017-Dec-27 22:25S 33°39' E 151°18'0 0.0
2017-Dec-27 21:55S 33°39' E 151°18'0 0.0
2017-Dec-27 21:25S 33°39' E 151°18'0 0.0
2017-Dec-27 20:58S 33°39' E 151°18'0 0.0
2017-Dec-27 20:22S 33°39' E 151°18'0 0.0
2017-Dec-27 19:55S 33°39' E 151°18'0 0.0
2017-Dec-27 19:25S 33°39' E 151°18'0 0.0
2017-Dec-27 18:58S 33°39' E 151°18'0 0.0
2017-Dec-27 18:28S 33°39' E 151°18'0 0.0
2017-Dec-27 17:55S 33°39' E 151°18'0 0.0
2017-Dec-27 17:28S 33°39' E 151°18'0 0.0
2017-Dec-27 16:55S 33°39' E 151°18'0 0.0
2017-Dec-27 16:25S 33°39' E 151°18'0 0.0
2017-Dec-27 15:58S 33°39' E 151°18'0 0.0
2017-Dec-27 15:25S 33°39' E 151°18'0 0.0
2017-Dec-27 14:55S 33°39' E 151°18'0 0.0
2017-Dec-27 14:28S 33°39' E 151°18'0 0.0
2017-Dec-27 13:58S 33°39' E 151°18'0 0.0
2017-Dec-27 13:25S 33°39' E 151°18'0 0.0
2017-Dec-27 12:58S 33°39' E 151°18'0 0.0
2017-Dec-27 12:28S 33°39' E 151°18'0 0.0
2017-Dec-27 11:55S 33°39' E 151°18'0 0.0
2017-Dec-27 11:25S 33°39' E 151°18'0 0.0
2017-Dec-27 10:58S 33°39' E 151°18'0 0.0
2017-Dec-27 10:28S 33°39' E 151°18'0 0.0
2017-Dec-27 09:58S 33°39' E 151°18'0 0.0
2017-Dec-27 09:28S 33°39' E 151°18'0 0.0
2017-Dec-27 08:55S 33°39' E 151°18'0 0.0
2017-Dec-27 08:25S 33°39' E 151°18'0 0.0
2017-Dec-27 07:58S 33°39' E 151°18'0 0.0
2017-Dec-27 07:28S 33°39' E 151°18'0 0.0
2017-Dec-27 06:55S 33°39' E 151°18'0 0.0
2017-Dec-27 06:28S 33°39' E 151°18'0 0.0
2017-Dec-27 05:55S 33°39' E 151°18'1 2.2
2017-Dec-27 05:30S 33°38' E 151°18'2 0.4
2017-Dec-27 00:14S 33°37' E 151°19'0 0.2
2017-Dec-26 23:58S 33°37' E 151°19'1 2.5
2017-Dec-26 23:29S 33°35' E 151°19'2 0.1
2017-Dec-26 06:14S 33°34' E 151°17'2 7.5
2017-Dec-26 06:00S 33°34' E 151°19'8 7.3
2017-Dec-26 04:55S 33°42' E 151°21'3 7.8
2017-Dec-26 04:29S 33°45' E 151°20'  

Dump ship's entire track history